sensor_id;sensor_type;location;lat;lon;timestamp;P1;durP1;ratioP1;P2;durP2;ratioP2
12776;SDS011;6452;41.572;23.732;2023-02-28T00:01:31;38.08;;;14.32;;
12776;SDS011;6452;41.572;23.732;2023-02-28T00:03:57;37.17;;;12.75;;
12776;SDS011;6452;41.572;23.732;2023-02-28T00:06:24;44.38;;;14.35;;
12776;SDS011;6452;41.572;23.732;2023-02-28T00:08:50;44.65;;;13.65;;
12776;SDS011;6452;41.572;23.732;2023-02-28T00:11:17;36.55;;;12.90;;
12776;SDS011;6452;41.572;23.732;2023-02-28T00:13:44;32.35;;;11.20;;
12776;SDS011;6452;41.572;23.732;2023-02-28T00:16:14;39.67;;;11.35;;
12776;SDS011;6452;41.572;23.732;2023-02-28T00:18:43;34.85;;;10.10;;
12776;SDS011;6452;41.572;23.732;2023-02-28T00:21:09;29.42;;;9.27;;
12776;SDS011;6452;41.572;23.732;2023-02-28T00:23:36;36.22;;;10.15;;
12776;SDS011;6452;41.572;23.732;2023-02-28T00:26:02;34.75;;;8.95;;
12776;SDS011;6452;41.572;23.732;2023-02-28T00:28:29;34.42;;;8.90;;
12776;SDS011;6452;41.572;23.732;2023-02-28T00:30:55;36.30;;;9.30;;
12776;SDS011;6452;41.572;23.732;2023-02-28T00:33:22;49.17;;;10.20;;
12776;SDS011;6452;41.572;23.732;2023-02-28T00:35:48;41.53;;;10.27;;
12776;SDS011;6452;41.572;23.732;2023-02-28T00:38:15;48.55;;;9.85;;
12776;SDS011;6452;41.572;23.732;2023-02-28T00:40:41;31.98;;;8.63;;
12776;SDS011;6452;41.572;23.732;2023-02-28T00:43:07;35.30;;;9.27;;
12776;SDS011;6452;41.572;23.732;2023-02-28T00:45:34;46.33;;;9.45;;
12776;SDS011;6452;41.572;23.732;2023-02-28T00:48:00;36.45;;;9.02;;
12776;SDS011;6452;41.572;23.732;2023-02-28T00:50:26;40.47;;;11.18;;
12776;SDS011;6452;41.572;23.732;2023-02-28T00:52:53;36.28;;;10.27;;
12776;SDS011;6452;41.572;23.732;2023-02-28T00:55:20;30.75;;;10.20;;
12776;SDS011;6452;41.572;23.732;2023-02-28T00:57:47;39.03;;;10.93;;
12776;SDS011;6452;41.572;23.732;2023-02-28T01:00:14;45.05;;;11.13;;
12776;SDS011;6452;41.572;23.732;2023-02-28T01:02:42;46.13;;;13.98;;
12776;SDS011;6452;41.572;23.732;2023-02-28T01:05:09;46.03;;;12.52;;
12776;SDS011;6452;41.572;23.732;2023-02-28T01:07:36;37.15;;;12.25;;
12776;SDS011;6452;41.572;23.732;2023-02-28T01:10:03;39.78;;;12.80;;
12776;SDS011;6452;41.572;23.732;2023-02-28T01:12:30;35.17;;;11.77;;
12776;SDS011;6452;41.572;23.732;2023-02-28T01:14:56;47.58;;;14.15;;
12776;SDS011;6452;41.572;23.732;2023-02-28T01:17:23;36.50;;;12.95;;
12776;SDS011;6452;41.572;23.732;2023-02-28T01:19:52;43.55;;;13.88;;
12776;SDS011;6452;41.572;23.732;2023-02-28T01:22:19;44.08;;;13.95;;
12776;SDS011;6452;41.572;23.732;2023-02-28T01:24:46;39.45;;;12.20;;
12776;SDS011;6452;41.572;23.732;2023-02-28T01:27:13;41.90;;;12.93;;
12776;SDS011;6452;41.572;23.732;2023-02-28T01:29:39;31.95;;;11.07;;
12776;SDS011;6452;41.572;23.732;2023-02-28T01:32:06;37.58;;;11.02;;
12776;SDS011;6452;41.572;23.732;2023-02-28T01:34:33;31.75;;;10.90;;
12776;SDS011;6452;41.572;23.732;2023-02-28T01:37:00;40.28;;;11.23;;
12776;SDS011;6452;41.572;23.732;2023-02-28T01:39:31;35.55;;;11.60;;
12776;SDS011;6452;41.572;23.732;2023-02-28T01:41:58;33.05;;;14.07;;
12776;SDS011;6452;41.572;23.732;2023-02-28T01:47:32;37.33;;;12.68;;
12776;SDS011;6452;41.572;23.732;2023-02-28T01:50:02;40.80;;;12.95;;
12776;SDS011;6452;41.572;23.732;2023-02-28T01:52:34;46.58;;;12.40;;
12776;SDS011;6452;41.572;23.732;2023-02-28T01:55:01;39.13;;;11.57;;
12776;SDS011;6452;41.572;23.732;2023-02-28T01:57:34;45.67;;;11.90;;
12776;SDS011;6452;41.572;23.732;2023-02-28T02:00:07;40.13;;;10.65;;
12776;SDS011;6452;41.572;23.732;2023-02-28T02:02:38;42.97;;;11.30;;
12776;SDS011;6452;41.572;23.732;2023-02-28T02:05:11;38.45;;;11.43;;
12776;SDS011;6452;41.572;23.732;2023-02-28T02:07:41;37.05;;;11.32;;
12776;SDS011;6452;41.572;23.732;2023-02-28T02:15:20;31.75;;;10.02;;
12776;SDS011;6452;41.572;23.732;2023-02-28T02:17:53;28.63;;;10.05;;
12776;SDS011;6452;41.572;23.732;2023-02-28T02:20:32;32.58;;;10.77;;
12776;SDS011;6452;41.572;23.732;2023-02-28T02:28:39;49.47;;;14.13;;
12776;SDS011;6452;41.572;23.732;2023-02-28T02:42:09;36.75;;;12.10;;
12776;SDS011;6452;41.572;23.732;2023-02-28T02:44:43;36.25;;;11.93;;
12776;SDS011;6452;41.572;23.732;2023-02-28T02:47:14;39.95;;;13.65;;
12776;SDS011;6452;41.572;23.732;2023-02-28T02:49:49;44.90;;;13.32;;
12776;SDS011;6452;41.572;23.732;2023-02-28T02:52:18;38.75;;;12.60;;
12776;SDS011;6452;41.572;23.732;2023-02-28T02:54:48;40.95;;;13.30;;
12776;SDS011;6452;41.572;23.732;2023-02-28T02:57:23;38.72;;;13.18;;
12776;SDS011;6452;41.572;23.732;2023-02-28T02:59:58;39.92;;;13.63;;
12776;SDS011;6452;41.572;23.732;2023-02-28T03:02:26;39.97;;;13.35;;
12776;SDS011;6452;41.572;23.732;2023-02-28T03:05:06;39.45;;;13.13;;
12776;SDS011;6452;41.572;23.732;2023-02-28T03:07:38;40.20;;;13.10;;
12776;SDS011;6452;41.572;23.732;2023-02-28T03:10:25;37.58;;;13.18;;
12776;SDS011;6452;41.572;23.732;2023-02-28T03:23:33;42.00;;;14.13;;
12776;SDS011;6452;41.572;23.732;2023-02-28T03:26:13;40.08;;;13.35;;
12776;SDS011;6452;41.572;23.732;2023-02-28T03:31:47;41.72;;;14.52;;
12776;SDS011;6452;41.572;23.732;2023-02-28T03:34:17;40.42;;;13.35;;
12776;SDS011;6452;41.572;23.732;2023-02-28T03:36:57;36.03;;;12.90;;
12776;SDS011;6452;41.572;23.732;2023-02-28T03:39:37;36.97;;;13.15;;
12776;SDS011;6452;41.572;23.732;2023-02-28T03:42:20;37.47;;;13.85;;
12776;SDS011;6452;41.572;23.732;2023-02-28T03:44:54;38.67;;;13.43;;
12776;SDS011;6452;41.572;23.732;2023-02-28T03:47:27;35.88;;;15.82;;
12776;SDS011;6452;41.572;23.732;2023-02-28T03:50:23;42.45;;;16.67;;
12776;SDS011;6452;41.572;23.732;2023-02-28T03:53:03;50.22;;;16.67;;
12776;SDS011;6452;41.572;23.732;2023-02-28T03:55:38;35.92;;;13.45;;
12776;SDS011;6452;41.572;23.732;2023-02-28T04:00:52;36.83;;;14.02;;
12776;SDS011;6452;41.572;23.732;2023-02-28T04:03:24;31.98;;;14.13;;
12776;SDS011;6452;41.572;23.732;2023-02-28T04:05:55;47.88;;;16.77;;
12776;SDS011;6452;41.572;23.732;2023-02-28T04:08:22;28.25;;;14.10;;
12776;SDS011;6452;41.572;23.732;2023-02-28T04:10:51;44.55;;;17.23;;
12776;SDS011;6452;41.572;23.732;2023-02-28T04:13:27;34.33;;;15.00;;
12776;SDS011;6452;41.572;23.732;2023-02-28T04:15:54;44.42;;;14.43;;
12776;SDS011;6452;41.572;23.732;2023-02-28T04:18:20;38.63;;;12.40;;
12776;SDS011;6452;41.572;23.732;2023-02-28T04:20:47;37.90;;;13.15;;
12776;SDS011;6452;41.572;23.732;2023-02-28T04:23:13;38.83;;;13.13;;
12776;SDS011;6452;41.572;23.732;2023-02-28T04:25:40;39.05;;;13.25;;
12776;SDS011;6452;41.572;23.732;2023-02-28T04:28:11;33.00;;;13.82;;
12776;SDS011;6452;41.572;23.732;2023-02-28T04:30:37;36.58;;;13.10;;
12776;SDS011;6452;41.572;23.732;2023-02-28T04:33:04;45.85;;;14.05;;
12776;SDS011;6452;41.572;23.732;2023-02-28T04:35:31;62.83;;;21.75;;
12776;SDS011;6452;41.572;23.732;2023-02-28T04:37:58;69.00;;;20.77;;
12776;SDS011;6452;41.572;23.732;2023-02-28T04:40:24;41.13;;;16.83;;
12776;SDS011;6452;41.572;23.732;2023-02-28T04:42:51;43.50;;;15.43;;
12776;SDS011;6452;41.572;23.732;2023-02-28T04:45:18;48.25;;;18.77;;
12776;SDS011;6452;41.572;23.732;2023-02-28T04:47:49;44.95;;;16.60;;
12776;SDS011;6452;41.572;23.732;2023-02-28T04:50:15;44.38;;;14.05;;
12776;SDS011;6452;41.572;23.732;2023-02-28T04:52:42;38.63;;;17.35;;
12776;SDS011;6452;41.572;23.732;2023-02-28T04:55:09;51.22;;;22.42;;
12776;SDS011;6452;41.572;23.732;2023-02-28T04:57:37;47.38;;;18.08;;
12776;SDS011;6452;41.572;23.732;2023-02-28T05:00:03;38.65;;;17.27;;
12776;SDS011;6452;41.572;23.732;2023-02-28T05:02:50;46.47;;;17.60;;
12776;SDS011;6452;41.572;23.732;2023-02-28T05:05:17;42.30;;;17.52;;
12776;SDS011;6452;41.572;23.732;2023-02-28T05:07:44;49.65;;;18.23;;
12776;SDS011;6452;41.572;23.732;2023-02-28T05:10:10;44.58;;;19.10;;
12776;SDS011;6452;41.572;23.732;2023-02-28T05:12:38;44.90;;;18.42;;
12776;SDS011;6452;41.572;23.732;2023-02-28T05:15:04;45.78;;;18.55;;
12776;SDS011;6452;41.572;23.732;2023-02-28T05:17:35;53.70;;;17.08;;
12776;SDS011;6452;41.572;23.732;2023-02-28T05:20:02;46.17;;;18.45;;
12776;SDS011;6452;41.572;23.732;2023-02-28T05:22:30;44.60;;;19.20;;
12776;SDS011;6452;41.572;23.732;2023-02-28T05:24:57;45.65;;;16.20;;
12776;SDS011;6452;41.572;23.732;2023-02-28T05:27:24;42.40;;;18.05;;
12776;SDS011;6452;41.572;23.732;2023-02-28T05:29:54;51.63;;;20.30;;
12776;SDS011;6452;41.572;23.732;2023-02-28T05:32:21;52.63;;;24.25;;
12776;SDS011;6452;41.572;23.732;2023-02-28T05:34:48;52.85;;;23.63;;
12776;SDS011;6452;41.572;23.732;2023-02-28T05:37:14;55.42;;;23.77;;
12776;SDS011;6452;41.572;23.732;2023-02-28T05:39:41;61.42;;;27.35;;
12776;SDS011;6452;41.572;23.732;2023-02-28T05:42:08;53.38;;;28.35;;
12776;SDS011;6452;41.572;23.732;2023-02-28T05:44:35;62.25;;;29.48;;
12776;SDS011;6452;41.572;23.732;2023-02-28T05:47:01;59.58;;;27.33;;
12776;SDS011;6452;41.572;23.732;2023-02-28T05:49:27;52.33;;;28.20;;
12776;SDS011;6452;41.572;23.732;2023-02-28T05:51:58;58.00;;;31.55;;
12776;SDS011;6452;41.572;23.732;2023-02-28T05:54:25;66.68;;;32.70;;
12776;SDS011;6452;41.572;23.732;2023-02-28T05:56:51;61.92;;;30.90;;
12776;SDS011;6452;41.572;23.732;2023-02-28T05:59:18;73.75;;;35.72;;
12776;SDS011;6452;41.572;23.732;2023-02-28T06:01:45;55.65;;;30.50;;
12776;SDS011;6452;41.572;23.732;2023-02-28T06:04:14;50.75;;;29.42;;
12776;SDS011;6452;41.572;23.732;2023-02-28T06:06:43;56.55;;;28.50;;
12776;SDS011;6452;41.572;23.732;2023-02-28T06:09:10;155.55;;;62.88;;
12776;SDS011;6452;41.572;23.732;2023-02-28T06:11:37;325.48;;;128.73;;
12776;SDS011;6452;41.572;23.732;2023-02-28T06:14:07;78.82;;;37.08;;
12776;SDS011;6452;41.572;23.732;2023-02-28T06:16:44;67.55;;;33.97;;
12776;SDS011;6452;41.572;23.732;2023-02-28T06:19:10;63.58;;;30.42;;
12776;SDS011;6452;41.572;23.732;2023-02-28T06:21:40;62.72;;;26.95;;
12776;SDS011;6452;41.572;23.732;2023-02-28T06:24:07;48.08;;;18.67;;
12776;SDS011;6452;41.572;23.732;2023-02-28T06:26:33;42.63;;;16.48;;
12776;SDS011;6452;41.572;23.732;2023-02-28T06:29:00;37.13;;;16.45;;
12776;SDS011;6452;41.572;23.732;2023-02-28T06:31:26;36.47;;;14.20;;
12776;SDS011;6452;41.572;23.732;2023-02-28T06:33:54;41.17;;;12.90;;
12776;SDS011;6452;41.572;23.732;2023-02-28T06:36:21;32.00;;;12.65;;
12776;SDS011;6452;41.572;23.732;2023-02-28T06:38:47;37.90;;;13.10;;
12776;SDS011;6452;41.572;23.732;2023-02-28T06:41:21;45.13;;;14.35;;
12776;SDS011;6452;41.572;23.732;2023-02-28T06:43:48;47.55;;;15.00;;
12776;SDS011;6452;41.572;23.732;2023-02-28T06:46:15;31.40;;;13.77;;
12776;SDS011;6452;41.572;23.732;2023-02-28T06:48:43;28.98;;;12.50;;
12776;SDS011;6452;41.572;23.732;2023-02-28T06:51:14;36.35;;;12.35;;
12776;SDS011;6452;41.572;23.732;2023-02-28T06:53:41;30.63;;;13.95;;
12776;SDS011;6452;41.572;23.732;2023-02-28T06:56:10;42.35;;;16.20;;
12776;SDS011;6452;41.572;23.732;2023-02-28T06:58:37;42.80;;;18.48;;
12776;SDS011;6452;41.572;23.732;2023-02-28T07:01:05;44.58;;;18.25;;
12776;SDS011;6452;41.572;23.732;2023-02-28T07:03:32;52.10;;;21.60;;
12776;SDS011;6452;41.572;23.732;2023-02-28T07:05:58;48.90;;;20.63;;
12776;SDS011;6452;41.572;23.732;2023-02-28T07:08:25;39.90;;;21.48;;
12776;SDS011;6452;41.572;23.732;2023-02-28T07:10:53;38.78;;;20.90;;
12776;SDS011;6452;41.572;23.732;2023-02-28T07:13:22;39.70;;;22.15;;
12776;SDS011;6452;41.572;23.732;2023-02-28T07:15:55;51.53;;;21.45;;
12776;SDS011;6452;41.572;23.732;2023-02-28T07:18:31;47.40;;;20.20;;
12776;SDS011;6452;41.572;23.732;2023-02-28T07:21:01;52.28;;;22.48;;
12776;SDS011;6452;41.572;23.732;2023-02-28T07:23:28;56.75;;;22.98;;
12776;SDS011;6452;41.572;23.732;2023-02-28T07:25:54;51.05;;;21.52;;
12776;SDS011;6452;41.572;23.732;2023-02-28T07:28:21;51.92;;;22.25;;
12776;SDS011;6452;41.572;23.732;2023-02-28T07:30:48;50.47;;;22.73;;
12776;SDS011;6452;41.572;23.732;2023-02-28T07:33:14;53.83;;;25.92;;
12776;SDS011;6452;41.572;23.732;2023-02-28T07:35:41;49.40;;;21.83;;
12776;SDS011;6452;41.572;23.732;2023-02-28T07:38:07;52.08;;;24.27;;
12776;SDS011;6452;41.572;23.732;2023-02-28T07:40:37;55.80;;;24.08;;
12776;SDS011;6452;41.572;23.732;2023-02-28T07:43:04;55.83;;;24.45;;
12776;SDS011;6452;41.572;23.732;2023-02-28T07:45:33;56.03;;;26.65;;
12776;SDS011;6452;41.572;23.732;2023-02-28T07:48:00;54.97;;;29.00;;
12776;SDS011;6452;41.572;23.732;2023-02-28T07:50:27;50.17;;;26.67;;
12776;SDS011;6452;41.572;23.732;2023-02-28T07:52:58;57.30;;;25.83;;
12776;SDS011;6452;41.572;23.732;2023-02-28T07:55:24;58.45;;;26.73;;
12776;SDS011;6452;41.572;23.732;2023-02-28T07:57:51;52.67;;;28.52;;
12776;SDS011;6452;41.572;23.732;2023-02-28T08:00:18;67.78;;;39.53;;
12776;SDS011;6452;41.572;23.732;2023-02-28T08:02:46;55.33;;;27.70;;
12776;SDS011;6452;41.572;23.732;2023-02-28T08:05:12;52.05;;;25.58;;
12776;SDS011;6452;41.572;23.732;2023-02-28T08:07:39;53.80;;;24.83;;
12776;SDS011;6452;41.572;23.732;2023-02-28T08:10:06;49.63;;;21.25;;
12776;SDS011;6452;41.572;23.732;2023-02-28T08:12:35;47.97;;;20.25;;
12776;SDS011;6452;41.572;23.732;2023-02-28T08:15:02;44.30;;;17.13;;
12776;SDS011;6452;41.572;23.732;2023-02-28T08:17:29;41.22;;;19.17;;
12776;SDS011;6452;41.572;23.732;2023-02-28T08:19:59;54.58;;;22.00;;
12776;SDS011;6452;41.572;23.732;2023-02-28T08:22:25;45.42;;;22.80;;
12776;SDS011;6452;41.572;23.732;2023-02-28T08:24:52;44.05;;;21.70;;
12776;SDS011;6452;41.572;23.732;2023-02-28T08:27:19;46.40;;;22.65;;
12776;SDS011;6452;41.572;23.732;2023-02-28T08:29:45;44.80;;;23.77;;
12776;SDS011;6452;41.572;23.732;2023-02-28T08:32:12;45.28;;;22.67;;
12776;SDS011;6452;41.572;23.732;2023-02-28T08:34:39;45.63;;;22.80;;
12776;SDS011;6452;41.572;23.732;2023-02-28T08:37:06;57.67;;;24.00;;
12776;SDS011;6452;41.572;23.732;2023-02-28T08:39:35;47.70;;;22.95;;
12776;SDS011;6452;41.572;23.732;2023-02-28T08:42:02;41.72;;;21.60;;
12776;SDS011;6452;41.572;23.732;2023-02-28T08:44:29;39.95;;;19.30;;
12776;SDS011;6452;41.572;23.732;2023-02-28T08:46:55;53.40;;;21.27;;
12776;SDS011;6452;41.572;23.732;2023-02-28T08:49:22;46.90;;;19.48;;
12776;SDS011;6452;41.572;23.732;2023-02-28T08:51:49;34.35;;;14.23;;
12776;SDS011;6452;41.572;23.732;2023-02-28T08:54:16;39.72;;;13.15;;
12776;SDS011;6452;41.572;23.732;2023-02-28T08:56:47;32.58;;;11.63;;
12776;SDS011;6452;41.572;23.732;2023-02-28T08:59:13;23.05;;;9.48;;
12776;SDS011;6452;41.572;23.732;2023-02-28T09:01:40;22.60;;;7.03;;
12776;SDS011;6452;41.572;23.732;2023-02-28T09:04:07;27.02;;;6.15;;
12776;SDS011;6452;41.572;23.732;2023-02-28T09:06:38;26.73;;;7.00;;
12776;SDS011;6452;41.572;23.732;2023-02-28T09:09:05;29.83;;;8.27;;
12776;SDS011;6452;41.572;23.732;2023-02-28T09:11:33;34.90;;;8.57;;
12776;SDS011;6452;41.572;23.732;2023-02-28T09:14:01;37.30;;;8.05;;
12776;SDS011;6452;41.572;23.732;2023-02-28T09:16:29;24.75;;;6.50;;
12776;SDS011;6452;41.572;23.732;2023-02-28T09:18:57;26.83;;;7.63;;
12776;SDS011;6452;41.572;23.732;2023-02-28T09:21:27;28.63;;;9.32;;
12776;SDS011;6452;41.572;23.732;2023-02-28T09:23:53;20.58;;;7.30;;
12776;SDS011;6452;41.572;23.732;2023-02-28T09:26:21;33.08;;;7.68;;
12776;SDS011;6452;41.572;23.732;2023-02-28T09:28:49;41.53;;;8.35;;
12776;SDS011;6452;41.572;23.732;2023-02-28T09:31:16;31.33;;;9.20;;
12776;SDS011;6452;41.572;23.732;2023-02-28T09:33:46;36.67;;;9.45;;
12776;SDS011;6452;41.572;23.732;2023-02-28T09:36:14;37.08;;;8.10;;
12776;SDS011;6452;41.572;23.732;2023-02-28T09:38:40;29.63;;;6.78;;
12776;SDS011;6452;41.572;23.732;2023-02-28T09:41:17;32.08;;;7.20;;
12776;SDS011;6452;41.572;23.732;2023-02-28T09:43:47;30.90;;;7.50;;
12776;SDS011;6452;41.572;23.732;2023-02-28T09:46:33;30.10;;;7.70;;
12776;SDS011;6452;41.572;23.732;2023-02-28T09:49:06;31.70;;;7.85;;
12776;SDS011;6452;41.572;23.732;2023-02-28T09:51:59;34.08;;;8.10;;
12776;SDS011;6452;41.572;23.732;2023-02-28T09:54:34;36.72;;;7.90;;
12776;SDS011;6452;41.572;23.732;2023-02-28T09:59:33;35.90;;;8.13;;
12776;SDS011;6452;41.572;23.732;2023-02-28T10:04:56;39.00;;;8.95;;
12776;SDS011;6452;41.572;23.732;2023-02-28T10:10:18;41.78;;;9.38;;
12776;SDS011;6452;41.572;23.732;2023-02-28T10:12:49;40.10;;;9.52;;
12776;SDS011;6452;41.572;23.732;2023-02-28T10:15:22;42.28;;;10.48;;
12776;SDS011;6452;41.572;23.732;2023-02-28T10:17:53;36.53;;;8.82;;
12776;SDS011;6452;41.572;23.732;2023-02-28T10:20:23;37.70;;;9.40;;
12776;SDS011;6452;41.572;23.732;2023-02-28T10:25:33;37.97;;;11.05;;
12776;SDS011;6452;41.572;23.732;2023-02-28T10:28:08;35.30;;;9.63;;
12776;SDS011;6452;41.572;23.732;2023-02-28T10:30:38;31.42;;;8.52;;
12776;SDS011;6452;41.572;23.732;2023-02-28T10:33:12;32.03;;;8.68;;
12776;SDS011;6452;41.572;23.732;2023-02-28T10:35:44;36.33;;;8.45;;
12776;SDS011;6452;41.572;23.732;2023-02-28T10:38:14;33.30;;;9.07;;
12776;SDS011;6452;41.572;23.732;2023-02-28T10:40:42;31.65;;;8.50;;
12776;SDS011;6452;41.572;23.732;2023-02-28T10:45:52;33.90;;;8.88;;
12776;SDS011;6452;41.572;23.732;2023-02-28T10:49:12;35.25;;;9.13;;
12776;SDS011;6452;41.572;23.732;2023-02-28T10:51:43;33.28;;;8.88;;
12776;SDS011;6452;41.572;23.732;2023-02-28T10:54:17;32.88;;;8.70;;
12776;SDS011;6452;41.572;23.732;2023-02-28T11:00:12;37.97;;;11.27;;
12776;SDS011;6452;41.572;23.732;2023-02-28T11:02:44;38.72;;;10.27;;
12776;SDS011;6452;41.572;23.732;2023-02-28T11:05:31;42.47;;;9.63;;
12776;SDS011;6452;41.572;23.732;2023-02-28T11:08:06;36.03;;;9.43;;
12776;SDS011;6452;41.572;23.732;2023-02-28T11:10:43;47.40;;;15.35;;
12776;SDS011;6452;41.572;23.732;2023-02-28T11:13:17;39.05;;;14.20;;
12776;SDS011;6452;41.572;23.732;2023-02-28T11:15:54;33.03;;;12.70;;
12776;SDS011;6452;41.572;23.732;2023-02-28T11:18:47;36.85;;;10.35;;
12776;SDS011;6452;41.572;23.732;2023-02-28T11:21:25;36.10;;;8.45;;
12776;SDS011;6452;41.572;23.732;2023-02-28T11:24:04;31.88;;;7.80;;
12776;SDS011;6452;41.572;23.732;2023-02-28T11:26:49;37.28;;;10.38;;
12776;SDS011;6452;41.572;23.732;2023-02-28T11:29:22;36.08;;;8.60;;
12776;SDS011;6452;41.572;23.732;2023-02-28T11:34:38;29.40;;;8.48;;
12776;SDS011;6452;41.572;23.732;2023-02-28T11:37:08;35.13;;;9.02;;
12776;SDS011;6452;41.572;23.732;2023-02-28T11:39:40;32.20;;;8.63;;
12776;SDS011;6452;41.572;23.732;2023-02-28T11:44:43;46.63;;;9.05;;
12776;SDS011;6452;41.572;23.732;2023-02-28T11:52:48;34.83;;;9.43;;
12776;SDS011;6452;41.572;23.732;2023-02-28T11:55:20;30.60;;;8.05;;
12776;SDS011;6452;41.572;23.732;2023-02-28T12:01:13;32.72;;;8.75;;
12776;SDS011;6452;41.572;23.732;2023-02-28T12:03:58;42.97;;;8.10;;
12776;SDS011;6452;41.572;23.732;2023-02-28T12:06:36;39.75;;;8.70;;
12776;SDS011;6452;41.572;23.732;2023-02-28T12:12:10;35.97;;;10.38;;
12776;SDS011;6452;41.572;23.732;2023-02-28T12:28:30;40.90;;;16.52;;
12776;SDS011;6452;41.572;23.732;2023-02-28T12:31:13;48.55;;;17.90;;
12776;SDS011;6452;41.572;23.732;2023-02-28T12:33:51;42.55;;;15.02;;
12776;SDS011;6452;41.572;23.732;2023-02-28T12:36:22;22.77;;;10.48;;
12776;SDS011;6452;41.572;23.732;2023-02-28T12:38:54;15.48;;;6.57;;
12776;SDS011;6452;41.572;23.732;2023-02-28T12:41:40;13.55;;;5.50;;
12776;SDS011;6452;41.572;23.732;2023-02-28T12:44:16;9.40;;;5.07;;
12776;SDS011;6452;41.572;23.732;2023-02-28T12:47:04;10.30;;;4.55;;
12776;SDS011;6452;41.572;23.732;2023-02-28T12:49:59;8.98;;;4.85;;
12776;SDS011;6452;41.572;23.732;2023-02-28T12:55:21;10.60;;;5.80;;
12776;SDS011;6452;41.572;23.732;2023-02-28T12:57:59;8.68;;;5.40;;
12776;SDS011;6452;41.572;23.732;2023-02-28T13:00:38;7.20;;;4.38;;
12776;SDS011;6452;41.572;23.732;2023-02-28T13:03:28;6.15;;;3.92;;
12776;SDS011;6452;41.572;23.732;2023-02-28T13:09:02;9.63;;;4.90;;
12776;SDS011;6452;41.572;23.732;2023-02-28T13:11:53;7.78;;;4.90;;
12776;SDS011;6452;41.572;23.732;2023-02-28T13:14:25;9.10;;;5.35;;
12776;SDS011;6452;41.572;23.732;2023-02-28T13:19:59;10.20;;;5.40;;
12776;SDS011;6452;41.572;23.732;2023-02-28T13:24:52;9.68;;;5.78;;
12776;SDS011;6452;41.572;23.732;2023-02-28T13:27:23;9.95;;;6.35;;
12776;SDS011;6452;41.572;23.732;2023-02-28T13:30:01;9.27;;;6.03;;
12776;SDS011;6452;41.572;23.732;2023-02-28T13:32:51;8.77;;;6.07;;
12776;SDS011;6452;41.572;23.732;2023-02-28T13:38:59;11.18;;;5.97;;
12776;SDS011;6452;41.572;23.732;2023-02-28T13:44:02;11.52;;;6.63;;
12776;SDS011;6452;41.572;23.732;2023-02-28T13:46:35;8.45;;;7.00;;
12776;SDS011;6452;41.572;23.732;2023-02-28T14:02:46;14.60;;;9.63;;
12776;SDS011;6452;41.572;23.732;2023-02-28T14:05:18;13.90;;;11.38;;
12776;SDS011;6452;41.572;23.732;2023-02-28T14:07:52;11.02;;;8.52;;
12776;SDS011;6452;41.572;23.732;2023-02-28T14:10:28;10.60;;;8.40;;
12776;SDS011;6452;41.572;23.732;2023-02-28T14:13:12;10.77;;;7.20;;
12776;SDS011;6452;41.572;23.732;2023-02-28T14:15:57;9.48;;;7.57;;
12776;SDS011;6452;41.572;23.732;2023-02-28T14:18:49;11.73;;;7.82;;
12776;SDS011;6452;41.572;23.732;2023-02-28T14:21:31;13.50;;;8.10;;
12776;SDS011;6452;41.572;23.732;2023-02-28T14:37:37;27.42;;;17.80;;
12776;SDS011;6452;41.572;23.732;2023-02-28T14:40:17;37.65;;;24.80;;
12776;SDS011;6452;41.572;23.732;2023-02-28T14:43:00;27.88;;;20.80;;
12776;SDS011;6452;41.572;23.732;2023-02-28T14:45:29;33.50;;;22.40;;
12776;SDS011;6452;41.572;23.732;2023-02-28T14:47:58;36.30;;;26.95;;
12776;SDS011;6452;41.572;23.732;2023-02-28T14:50:35;44.58;;;28.13;;
12776;SDS011;6452;41.572;23.732;2023-02-28T14:53:22;37.60;;;26.58;;
12776;SDS011;6452;41.572;23.732;2023-02-28T14:55:50;31.98;;;23.50;;
12776;SDS011;6452;41.572;23.732;2023-02-28T15:00:52;28.40;;;21.55;;
12776;SDS011;6452;41.572;23.732;2023-02-28T15:08:18;34.92;;;28.52;;
12776;SDS011;6452;41.572;23.732;2023-02-28T15:10:55;43.15;;;31.52;;
12776;SDS011;6452;41.572;23.732;2023-02-28T15:13:26;39.28;;;31.20;;
12776;SDS011;6452;41.572;23.732;2023-02-28T15:18:51;12.90;;;10.07;;
12776;SDS011;6452;41.572;23.732;2023-02-28T15:21:24;9.32;;;7.80;;
12776;SDS011;6452;41.572;23.732;2023-02-28T15:26:59;39.63;;;32.05;;
12776;SDS011;6452;41.572;23.732;2023-02-28T15:29:29;31.38;;;27.25;;
12776;SDS011;6452;41.572;23.732;2023-02-28T15:32:02;39.13;;;31.70;;
12776;SDS011;6452;41.572;23.732;2023-02-28T15:34:38;32.17;;;24.83;;
12776;SDS011;6452;41.572;23.732;2023-02-28T15:45:37;14.70;;;9.23;;
12776;SDS011;6452;41.572;23.732;2023-02-28T15:48:16;12.50;;;10.20;;
12776;SDS011;6452;41.572;23.732;2023-02-28T15:50:50;34.15;;;23.50;;
12776;SDS011;6452;41.572;23.732;2023-02-28T15:53:20;28.05;;;23.23;;
12776;SDS011;6452;41.572;23.732;2023-02-28T15:56:29;35.97;;;26.85;;
12776;SDS011;6452;41.572;23.732;2023-02-28T15:59:05;98.93;;;62.53;;
12776;SDS011;6452;41.572;23.732;2023-02-28T16:01:38;44.40;;;36.95;;
12776;SDS011;6452;41.572;23.732;2023-02-28T16:04:05;38.33;;;32.60;;
12776;SDS011;6452;41.572;23.732;2023-02-28T16:06:40;35.25;;;26.95;;
12776;SDS011;6452;41.572;23.732;2023-02-28T16:09:26;28.75;;;21.13;;
12776;SDS011;6452;41.572;23.732;2023-02-28T16:11:55;24.13;;;19.60;;
12776;SDS011;6452;41.572;23.732;2023-02-28T16:14:27;18.80;;;14.43;;
12776;SDS011;6452;41.572;23.732;2023-02-28T16:17:04;22.02;;;14.50;;
12776;SDS011;6452;41.572;23.732;2023-02-28T16:19:34;19.27;;;16.42;;
12776;SDS011;6452;41.572;23.732;2023-02-28T16:22:04;21.77;;;14.15;;
12776;SDS011;6452;41.572;23.732;2023-02-28T16:24:31;14.60;;;11.68;;
12776;SDS011;6452;41.572;23.732;2023-02-28T16:26:58;16.42;;;12.10;;
12776;SDS011;6452;41.572;23.732;2023-02-28T16:29:29;16.20;;;12.65;;
12776;SDS011;6452;41.572;23.732;2023-02-28T16:31:58;15.18;;;12.43;;
12776;SDS011;6452;41.572;23.732;2023-02-28T16:34:25;20.10;;;14.23;;
12776;SDS011;6452;41.572;23.732;2023-02-28T16:36:52;21.10;;;16.23;;
12776;SDS011;6452;41.572;23.732;2023-02-28T16:39:18;27.55;;;20.90;;
12776;SDS011;6452;41.572;23.732;2023-02-28T16:41:48;27.85;;;23.27;;
12776;SDS011;6452;41.572;23.732;2023-02-28T16:44:35;24.15;;;20.00;;
12776;SDS011;6452;41.572;23.732;2023-02-28T16:47:05;22.77;;;17.98;;
12776;SDS011;6452;41.572;23.732;2023-02-28T16:49:31;26.60;;;19.98;;
12776;SDS011;6452;41.572;23.732;2023-02-28T16:51:58;22.58;;;17.40;;
12776;SDS011;6452;41.572;23.732;2023-02-28T16:54:25;27.00;;;20.45;;
12776;SDS011;6452;41.572;23.732;2023-02-28T16:56:52;29.83;;;24.15;;
12776;SDS011;6452;41.572;23.732;2023-02-28T16:59:21;34.15;;;26.73;;
12776;SDS011;6452;41.572;23.732;2023-02-28T17:01:53;48.25;;;35.72;;
12776;SDS011;6452;41.572;23.732;2023-02-28T17:04:21;23.77;;;17.90;;
12776;SDS011;6452;41.572;23.732;2023-02-28T17:06:47;23.73;;;18.02;;
12776;SDS011;6452;41.572;23.732;2023-02-28T17:09:19;33.13;;;23.85;;
12776;SDS011;6452;41.572;23.732;2023-02-28T17:11:48;29.17;;;22.25;;
12776;SDS011;6452;41.572;23.732;2023-02-28T17:14:15;25.90;;;20.15;;
12776;SDS011;6452;41.572;23.732;2023-02-28T17:16:41;29.58;;;23.05;;
12776;SDS011;6452;41.572;23.732;2023-02-28T17:19:14;27.33;;;20.05;;
12776;SDS011;6452;41.572;23.732;2023-02-28T17:21:42;24.67;;;18.08;;
12776;SDS011;6452;41.572;23.732;2023-02-28T17:24:09;19.80;;;16.38;;